sensor_id;sensor_type;location;lat;lon;timestamp;P1;durP1;ratioP1;P2;durP2;ratioP2
9904;SDS011;4991;43.566;27.820;2023-04-03T00:00:29;4.67;;;3.40;;
9904;SDS011;4991;43.566;27.820;2023-04-03T00:02:55;3.37;;;2.80;;
9904;SDS011;4991;43.566;27.820;2023-04-03T00:05:21;3.97;;;3.57;;
9904;SDS011;4991;43.566;27.820;2023-04-03T00:07:46;4.80;;;3.47;;
9904;SDS011;4991;43.566;27.820;2023-04-03T00:10:12;4.77;;;3.70;;
9904;SDS011;4991;43.566;27.820;2023-04-03T00:12:39;4.70;;;3.80;;
9904;SDS011;4991;43.566;27.820;2023-04-03T00:15:04;3.57;;;3.27;;
9904;SDS011;4991;43.566;27.820;2023-04-03T00:17:30;7.07;;;3.27;;
9904;SDS011;4991;43.566;27.820;2023-04-03T00:19:56;4.03;;;3.63;;
9904;SDS011;4991;43.566;27.820;2023-04-03T00:22:21;5.57;;;4.20;;
9904;SDS011;4991;43.566;27.820;2023-04-03T00:24:47;4.97;;;3.97;;
9904;SDS011;4991;43.566;27.820;2023-04-03T00:27:13;6.37;;;4.07;;
9904;SDS011;4991;43.566;27.820;2023-04-03T00:29:38;6.07;;;3.97;;
9904;SDS011;4991;43.566;27.820;2023-04-03T00:32:04;6.50;;;3.73;;
9904;SDS011;4991;43.566;27.820;2023-04-03T00:34:29;5.17;;;4.27;;
9904;SDS011;4991;43.566;27.820;2023-04-03T00:36:55;9.43;;;5.20;;
9904;SDS011;4991;43.566;27.820;2023-04-03T00:39:22;4.90;;;4.37;;
9904;SDS011;4991;43.566;27.820;2023-04-03T00:41:48;6.33;;;4.37;;
9904;SDS011;4991;43.566;27.820;2023-04-03T00:45:22;4.87;;;4.27;;
9904;SDS011;4991;43.566;27.820;2023-04-03T00:47:13;5.97;;;4.47;;
9904;SDS011;4991;43.566;27.820;2023-04-03T00:49:41;7.63;;;4.50;;
9904;SDS011;4991;43.566;27.820;2023-04-03T00:52:08;5.43;;;4.73;;
9904;SDS011;4991;43.566;27.820;2023-04-03T00:54:38;6.20;;;4.43;;
9904;SDS011;4991;43.566;27.820;2023-04-03T00:57:06;7.13;;;5.03;;
9904;SDS011;4991;43.566;27.820;2023-04-03T00:59:33;6.20;;;5.03;;
9904;SDS011;4991;43.566;27.820;2023-04-03T01:02:01;5.70;;;5.10;;
9904;SDS011;4991;43.566;27.820;2023-04-03T01:04:27;5.37;;;4.83;;
9904;SDS011;4991;43.566;27.820;2023-04-03T01:07:02;5.50;;;4.83;;
9904;SDS011;4991;43.566;27.820;2023-04-03T01:09:30;8.60;;;5.83;;
9904;SDS011;4991;43.566;27.820;2023-04-03T01:12:16;7.77;;;5.87;;
9904;SDS011;4991;43.566;27.820;2023-04-03T01:14:55;9.73;;;5.47;;
9904;SDS011;4991;43.566;27.820;2023-04-03T01:17:43;10.07;;;5.23;;
9904;SDS011;4991;43.566;27.820;2023-04-03T01:25:42;10.97;;;4.93;;
9904;SDS011;4991;43.566;27.820;2023-04-03T01:28:11;7.77;;;4.67;;
9904;SDS011;4991;43.566;27.820;2023-04-03T01:33:09;6.00;;;5.00;;
9904;SDS011;4991;43.566;27.820;2023-04-03T01:35:35;7.97;;;4.87;;
9904;SDS011;4991;43.566;27.820;2023-04-03T01:38:00;5.40;;;4.20;;
9904;SDS011;4991;43.566;27.820;2023-04-03T01:40:26;5.37;;;4.10;;
9904;SDS011;4991;43.566;27.820;2023-04-03T01:42:52;7.60;;;5.63;;
9904;SDS011;4991;43.566;27.820;2023-04-03T01:45:17;7.20;;;6.40;;
9904;SDS011;4991;43.566;27.820;2023-04-03T01:47:43;11.07;;;7.43;;
9904;SDS011;4991;43.566;27.820;2023-04-03T01:50:08;7.13;;;6.00;;
9904;SDS011;4991;43.566;27.820;2023-04-03T01:52:34;8.60;;;6.00;;
9904;SDS011;4991;43.566;27.820;2023-04-03T01:55:00;5.20;;;4.50;;
9904;SDS011;4991;43.566;27.820;2023-04-03T01:57:25;8.87;;;6.87;;
9904;SDS011;4991;43.566;27.820;2023-04-03T01:59:52;6.73;;;5.13;;
9904;SDS011;4991;43.566;27.820;2023-04-03T02:02:17;9.20;;;6.77;;
9904;SDS011;4991;43.566;27.820;2023-04-03T02:04:44;9.47;;;7.77;;
9904;SDS011;4991;43.566;27.820;2023-04-03T02:07:10;10.87;;;8.07;;
9904;SDS011;4991;43.566;27.820;2023-04-03T02:09:35;11.00;;;6.97;;
9904;SDS011;4991;43.566;27.820;2023-04-03T02:12:01;9.90;;;6.57;;
9904;SDS011;4991;43.566;27.820;2023-04-03T02:14:27;9.70;;;6.10;;
9904;SDS011;4991;43.566;27.820;2023-04-03T02:16:53;5.43;;;4.90;;
9904;SDS011;4991;43.566;27.820;2023-04-03T02:19:19;6.10;;;5.50;;
9904;SDS011;4991;43.566;27.820;2023-04-03T02:21:45;6.17;;;5.17;;
9904;SDS011;4991;43.566;27.820;2023-04-03T02:24:10;7.43;;;5.13;;
9904;SDS011;4991;43.566;27.820;2023-04-03T02:26:36;5.87;;;4.83;;
9904;SDS011;4991;43.566;27.820;2023-04-03T02:29:02;5.87;;;4.70;;
9904;SDS011;4991;43.566;27.820;2023-04-03T02:31:28;5.20;;;4.50;;
9904;SDS011;4991;43.566;27.820;2023-04-03T02:33:53;5.40;;;4.57;;
9904;SDS011;4991;43.566;27.820;2023-04-03T02:36:19;4.40;;;3.77;;
9904;SDS011;4991;43.566;27.820;2023-04-03T02:38:45;5.03;;;4.00;;
9904;SDS011;4991;43.566;27.820;2023-04-03T02:41:11;4.67;;;3.73;;
9904;SDS011;4991;43.566;27.820;2023-04-03T02:43:37;4.50;;;3.40;;
9904;SDS011;4991;43.566;27.820;2023-04-03T02:46:03;4.43;;;3.70;;
9904;SDS011;4991;43.566;27.820;2023-04-03T02:48:30;6.70;;;3.67;;
9904;SDS011;4991;43.566;27.820;2023-04-03T02:50:55;4.50;;;3.77;;
9904;SDS011;4991;43.566;27.820;2023-04-03T02:53:21;3.80;;;3.27;;
9904;SDS011;4991;43.566;27.820;2023-04-03T02:55:47;6.30;;;4.13;;
9904;SDS011;4991;43.566;27.820;2023-04-03T02:58:13;4.43;;;3.87;;
9904;SDS011;4991;43.566;27.820;2023-04-03T03:00:39;5.57;;;3.83;;
9904;SDS011;4991;43.566;27.820;2023-04-03T03:03:05;4.83;;;3.57;;
9904;SDS011;4991;43.566;27.820;2023-04-03T03:05:31;3.33;;;2.90;;
9904;SDS011;4991;43.566;27.820;2023-04-03T03:07:57;3.77;;;3.17;;
9904;SDS011;4991;43.566;27.820;2023-04-03T03:10:22;3.93;;;3.20;;
9904;SDS011;4991;43.566;27.820;2023-04-03T03:12:48;4.07;;;3.63;;
9904;SDS011;4991;43.566;27.820;2023-04-03T03:15:14;4.37;;;3.53;;
9904;SDS011;4991;43.566;27.820;2023-04-03T03:17:41;3.90;;;3.50;;
9904;SDS011;4991;43.566;27.820;2023-04-03T03:20:07;4.10;;;3.10;;
9904;SDS011;4991;43.566;27.820;2023-04-03T03:22:33;3.97;;;3.33;;
9904;SDS011;4991;43.566;27.820;2023-04-03T03:25:00;5.63;;;3.80;;
9904;SDS011;4991;43.566;27.820;2023-04-03T03:27:26;5.27;;;3.93;;
9904;SDS011;4991;43.566;27.820;2023-04-03T03:29:52;5.70;;;3.63;;
9904;SDS011;4991;43.566;27.820;2023-04-03T03:32:17;4.13;;;3.73;;
9904;SDS011;4991;43.566;27.820;2023-04-03T03:34:43;8.17;;;3.63;;
9904;SDS011;4991;43.566;27.820;2023-04-03T03:37:09;9.03;;;3.53;;
9904;SDS011;4991;43.566;27.820;2023-04-03T03:39:34;5.20;;;3.47;;
9904;SDS011;4991;43.566;27.820;2023-04-03T03:42:00;4.47;;;3.30;;
9904;SDS011;4991;43.566;27.820;2023-04-03T03:44:26;8.23;;;4.43;;
9904;SDS011;4991;43.566;27.820;2023-04-03T03:46:53;5.77;;;4.53;;
9904;SDS011;4991;43.566;27.820;2023-04-03T03:49:19;5.40;;;4.37;;
9904;SDS011;4991;43.566;27.820;2023-04-03T03:51:45;6.30;;;3.97;;
9904;SDS011;4991;43.566;27.820;2023-04-03T03:54:12;5.97;;;4.50;;
9904;SDS011;4991;43.566;27.820;2023-04-03T03:56:38;7.80;;;4.37;;
9904;SDS011;4991;43.566;27.820;2023-04-03T03:59:03;5.43;;;3.93;;
9904;SDS011;4991;43.566;27.820;2023-04-03T04:01:29;4.90;;;3.67;;
9904;SDS011;4991;43.566;27.820;2023-04-03T04:03:55;4.30;;;3.80;;
9904;SDS011;4991;43.566;27.820;2023-04-03T04:06:21;5.20;;;3.70;;
9904;SDS011;4991;43.566;27.820;2023-04-03T04:08:47;4.77;;;3.80;;
9904;SDS011;4991;43.566;27.820;2023-04-03T04:11:12;6.43;;;3.90;;
9904;SDS011;4991;43.566;27.820;2023-04-03T04:13:40;5.47;;;4.33;;
9904;SDS011;4991;43.566;27.820;2023-04-03T04:16:06;5.20;;;3.77;;
9904;SDS011;4991;43.566;27.820;2023-04-03T04:18:32;3.97;;;3.57;;
9904;SDS011;4991;43.566;27.820;2023-04-03T04:20:58;6.10;;;4.00;;
9904;SDS011;4991;43.566;27.820;2023-04-03T04:23:24;5.50;;;4.10;;
9904;SDS011;4991;43.566;27.820;2023-04-03T04:25:51;4.40;;;4.00;;
9904;SDS011;4991;43.566;27.820;2023-04-03T04:28:17;4.37;;;3.97;;
9904;SDS011;4991;43.566;27.820;2023-04-03T04:30:43;7.90;;;4.80;;
9904;SDS011;4991;43.566;27.820;2023-04-03T04:33:09;6.63;;;4.33;;
9904;SDS011;4991;43.566;27.820;2023-04-03T04:35:35;8.00;;;4.70;;
9904;SDS011;4991;43.566;27.820;2023-04-03T04:38:01;4.83;;;4.10;;
9904;SDS011;4991;43.566;27.820;2023-04-03T04:40:28;6.07;;;4.93;;
9904;SDS011;4991;43.566;27.820;2023-04-03T04:42:54;6.07;;;4.30;;
9904;SDS011;4991;43.566;27.820;2023-04-03T04:45:20;6.07;;;4.57;;
9904;SDS011;4991;43.566;27.820;2023-04-03T04:47:46;6.30;;;4.10;;
9904;SDS011;4991;43.566;27.820;2023-04-03T04:50:11;6.57;;;4.43;;
9904;SDS011;4991;43.566;27.820;2023-04-03T04:52:38;6.83;;;5.13;;
9904;SDS011;4991;43.566;27.820;2023-04-03T04:55:04;9.67;;;4.90;;
9904;SDS011;4991;43.566;27.820;2023-04-03T04:57:30;26.90;;;11.80;;
9904;SDS011;4991;43.566;27.820;2023-04-03T04:59:55;6.10;;;4.47;;
9904;SDS011;4991;43.566;27.820;2023-04-03T05:02:21;6.73;;;4.20;;
9904;SDS011;4991;43.566;27.820;2023-04-03T05:04:46;6.07;;;4.53;;
9904;SDS011;4991;43.566;27.820;2023-04-03T05:07:12;8.23;;;4.17;;
9904;SDS011;4991;43.566;27.820;2023-04-03T05:09:38;7.37;;;5.10;;
9904;SDS011;4991;43.566;27.820;2023-04-03T05:12:03;11.40;;;5.30;;
9904;SDS011;4991;43.566;27.820;2023-04-03T05:14:29;11.10;;;5.40;;
9904;SDS011;4991;43.566;27.820;2023-04-03T05:16:55;11.37;;;4.83;;
9904;SDS011;4991;43.566;27.820;2023-04-03T05:19:21;9.10;;;4.83;;
9904;SDS011;4991;43.566;27.820;2023-04-03T05:21:47;9.40;;;5.23;;
9904;SDS011;4991;43.566;27.820;2023-04-03T05:24:13;8.13;;;5.10;;
9904;SDS011;4991;43.566;27.820;2023-04-03T05:26:40;9.53;;;5.10;;
9904;SDS011;4991;43.566;27.820;2023-04-03T05:29:05;7.80;;;5.43;;
9904;SDS011;4991;43.566;27.820;2023-04-03T05:31:31;10.40;;;5.40;;
9904;SDS011;4991;43.566;27.820;2023-04-03T05:33:57;5.70;;;4.90;;
9904;SDS011;4991;43.566;27.820;2023-04-03T05:36:23;7.80;;;6.17;;
9904;SDS011;4991;43.566;27.820;2023-04-03T05:38:49;7.63;;;5.40;;
9904;SDS011;4991;43.566;27.820;2023-04-03T05:41:15;7.83;;;6.03;;
9904;SDS011;4991;43.566;27.820;2023-04-03T05:43:41;8.30;;;6.53;;
9904;SDS011;4991;43.566;27.820;2023-04-03T05:46:16;9.83;;;6.07;;
9904;SDS011;4991;43.566;27.820;2023-04-03T05:48:43;8.80;;;6.10;;
9904;SDS011;4991;43.566;27.820;2023-04-03T05:51:17;7.83;;;6.00;;
9904;SDS011;4991;43.566;27.820;2023-04-03T05:53:44;10.70;;;6.40;;
9904;SDS011;4991;43.566;27.820;2023-04-03T05:56:12;9.00;;;5.53;;
9904;SDS011;4991;43.566;27.820;2023-04-03T05:58:39;9.63;;;5.30;;
9904;SDS011;4991;43.566;27.820;2023-04-03T06:01:04;8.17;;;5.70;;
9904;SDS011;4991;43.566;27.820;2023-04-03T06:03:31;7.97;;;5.90;;
9904;SDS011;4991;43.566;27.820;2023-04-03T06:05:56;6.27;;;5.47;;
9904;SDS011;4991;43.566;27.820;2023-04-03T06:08:22;6.60;;;5.27;;
9904;SDS011;4991;43.566;27.820;2023-04-03T06:10:49;9.00;;;4.77;;
9904;SDS011;4991;43.566;27.820;2023-04-03T06:13:15;7.67;;;5.27;;
9904;SDS011;4991;43.566;27.820;2023-04-03T06:15:41;5.43;;;4.43;;
9904;SDS011;4991;43.566;27.820;2023-04-03T06:18:07;4.77;;;4.13;;
9904;SDS011;4991;43.566;27.820;2023-04-03T06:20:33;6.20;;;4.60;;
9904;SDS011;4991;43.566;27.820;2023-04-03T06:22:58;4.37;;;3.97;;
9904;SDS011;4991;43.566;27.820;2023-04-03T06:25:24;4.97;;;4.20;;
9904;SDS011;4991;43.566;27.820;2023-04-03T06:27:50;7.27;;;4.33;;
9904;SDS011;4991;43.566;27.820;2023-04-03T06:30:16;9.70;;;4.70;;
9904;SDS011;4991;43.566;27.820;2023-04-03T06:32:41;7.50;;;4.50;;
9904;SDS011;4991;43.566;27.820;2023-04-03T06:35:08;4.43;;;4.03;;
9904;SDS011;4991;43.566;27.820;2023-04-03T06:37:34;9.03;;;4.80;;
9904;SDS011;4991;43.566;27.820;2023-04-03T06:40:00;5.30;;;4.17;;
9904;SDS011;4991;43.566;27.820;2023-04-03T06:42:25;5.90;;;4.23;;
9904;SDS011;4991;43.566;27.820;2023-04-03T06:44:51;6.20;;;4.90;;
9904;SDS011;4991;43.566;27.820;2023-04-03T06:47:17;6.70;;;4.73;;
9904;SDS011;4991;43.566;27.820;2023-04-03T06:49:43;4.20;;;3.80;;
9904;SDS011;4991;43.566;27.820;2023-04-03T06:52:09;5.80;;;4.13;;
9904;SDS011;4991;43.566;27.820;2023-04-03T06:54:37;7.60;;;4.53;;
9904;SDS011;4991;43.566;27.820;2023-04-03T06:57:03;4.93;;;3.73;;
9904;SDS011;4991;43.566;27.820;2023-04-03T06:59:29;6.73;;;4.97;;
9904;SDS011;4991;43.566;27.820;2023-04-03T07:01:55;7.13;;;4.00;;
9904;SDS011;4991;43.566;27.820;2023-04-03T07:04:20;5.27;;;4.03;;
9904;SDS011;4991;43.566;27.820;2023-04-03T07:06:46;6.93;;;4.70;;
9904;SDS011;4991;43.566;27.820;2023-04-03T07:09:13;5.33;;;4.63;;
9904;SDS011;4991;43.566;27.820;2023-04-03T07:11:39;6.40;;;4.50;;
9904;SDS011;4991;43.566;27.820;2023-04-03T07:14:05;5.27;;;4.77;;
9904;SDS011;4991;43.566;27.820;2023-04-03T07:16:33;9.43;;;5.87;;
9904;SDS011;4991;43.566;27.820;2023-04-03T07:19:00;11.80;;;4.97;;
9904;SDS011;4991;43.566;27.820;2023-04-03T07:21:26;6.60;;;5.23;;
9904;SDS011;4991;43.566;27.820;2023-04-03T07:23:53;10.03;;;5.40;;
9904;SDS011;4991;43.566;27.820;2023-04-03T07:26:19;9.13;;;5.70;;
9904;SDS011;4991;43.566;27.820;2023-04-03T07:28:48;7.47;;;5.23;;
9904;SDS011;4991;43.566;27.820;2023-04-03T07:31:15;8.70;;;5.43;;
9904;SDS011;4991;43.566;27.820;2023-04-03T07:33:42;14.77;;;5.43;;
9904;SDS011;4991;43.566;27.820;2023-04-03T07:36:09;9.97;;;5.30;;
9904;SDS011;4991;43.566;27.820;2023-04-03T07:38:38;6.17;;;5.53;;
9904;SDS011;4991;43.566;27.820;2023-04-03T07:41:04;9.67;;;6.60;;
9904;SDS011;4991;43.566;27.820;2023-04-03T07:43:31;16.43;;;6.30;;
9904;SDS011;4991;43.566;27.820;2023-04-03T07:45:57;6.43;;;5.33;;
9904;SDS011;4991;43.566;27.820;2023-04-03T07:48:23;10.20;;;5.17;;
9904;SDS011;4991;43.566;27.820;2023-04-03T07:50:50;19.13;;;7.10;;
9904;SDS011;4991;43.566;27.820;2023-04-03T07:53:17;20.03;;;6.13;;
9904;SDS011;4991;43.566;27.820;2023-04-03T07:55:43;11.43;;;5.60;;
9904;SDS011;4991;43.566;27.820;2023-04-03T07:58:11;9.47;;;4.97;;
9904;SDS011;4991;43.566;27.820;2023-04-03T08:00:39;10.97;;;5.47;;
9904;SDS011;4991;43.566;27.820;2023-04-03T08:03:05;9.00;;;5.60;;
9904;SDS011;4991;43.566;27.820;2023-04-03T08:05:36;9.27;;;5.37;;
9904;SDS011;4991;43.566;27.820;2023-04-03T08:08:02;13.13;;;5.63;;
9904;SDS011;4991;43.566;27.820;2023-04-03T08:10:29;16.13;;;5.50;;
9904;SDS011;4991;43.566;27.820;2023-04-03T08:12:56;12.40;;;5.37;;
9904;SDS011;4991;43.566;27.820;2023-04-03T08:15:22;7.00;;;5.40;;
9904;SDS011;4991;43.566;27.820;2023-04-03T08:17:47;8.47;;;5.53;;
9904;SDS011;4991;43.566;27.820;2023-04-03T08:20:13;16.63;;;6.33;;
9904;SDS011;4991;43.566;27.820;2023-04-03T08:22:39;7.90;;;5.13;;
9904;SDS011;4991;43.566;27.820;2023-04-03T08:25:06;5.33;;;4.73;;
9904;SDS011;4991;43.566;27.820;2023-04-03T08:27:32;8.33;;;4.87;;
9904;SDS011;4991;43.566;27.820;2023-04-03T08:29:58;9.83;;;5.50;;
9904;SDS011;4991;43.566;27.820;2023-04-03T08:32:25;15.57;;;6.20;;
9904;SDS011;4991;43.566;27.820;2023-04-03T08:34:50;5.70;;;4.97;;
9904;SDS011;4991;43.566;27.820;2023-04-03T08:37:16;5.13;;;4.63;;
9904;SDS011;4991;43.566;27.820;2023-04-03T08:39:42;8.37;;;4.93;;
9904;SDS011;4991;43.566;27.820;2023-04-03T08:42:51;11.90;;;5.87;;
9904;SDS011;4991;43.566;27.820;2023-04-03T08:50:39;6.37;;;5.00;;
9904;SDS011;4991;43.566;27.820;2023-04-03T08:53:41;4.73;;;4.30;;
9904;SDS011;4991;43.566;27.820;2023-04-03T08:56:05;16.47;;;6.93;;
9904;SDS011;4991;43.566;27.820;2023-04-03T08:58:40;5.63;;;5.00;;
9904;SDS011;4991;43.566;27.820;2023-04-03T09:01:21;8.23;;;4.93;;
9904;SDS011;4991;43.566;27.820;2023-04-03T09:03:52;15.67;;;6.07;;
9904;SDS011;4991;43.566;27.820;2023-04-03T09:06:26;8.77;;;5.33;;
9904;SDS011;4991;43.566;27.820;2023-04-03T09:20:06;9.73;;;4.93;;
9904;SDS011;4991;43.566;27.820;2023-04-03T09:22:27;25.50;;;7.40;;
9904;SDS011;4991;43.566;27.820;2023-04-03T09:25:10;12.23;;;4.93;;
9904;SDS011;4991;43.566;27.820;2023-04-03T09:27:53;5.70;;;3.93;;
9904;SDS011;4991;43.566;27.820;2023-04-03T09:30:20;9.60;;;4.37;;
9904;SDS011;4991;43.566;27.820;2023-04-03T09:32:49;7.43;;;4.87;;
9904;SDS011;4991;43.566;27.820;2023-04-03T09:35:20;9.93;;;5.10;;
9904;SDS011;4991;43.566;27.820;2023-04-03T09:37:48;9.20;;;4.33;;
9904;SDS011;4991;43.566;27.820;2023-04-03T09:42:54;16.93;;;6.30;;
9904;SDS011;4991;43.566;27.820;2023-04-03T09:45:43;8.37;;;4.47;;
9904;SDS011;4991;43.566;27.820;2023-04-03T09:50:53;5.37;;;4.70;;
9904;SDS011;4991;43.566;27.820;2023-04-03T09:58:45;5.90;;;4.60;;
9904;SDS011;4991;43.566;27.820;2023-04-03T10:04:12;10.53;;;4.63;;
9904;SDS011;4991;43.566;27.820;2023-04-03T10:06:43;11.20;;;4.93;;
9904;SDS011;4991;43.566;27.820;2023-04-03T10:09:26;5.40;;;4.70;;
9904;SDS011;4991;43.566;27.820;2023-04-03T10:14:54;9.80;;;5.20;;
9904;SDS011;4991;43.566;27.820;2023-04-03T10:25:26;11.68;;;3.97;;
9904;SDS011;4991;43.566;27.820;2023-04-03T10:28:02;8.48;;;3.83;;
9904;SDS011;4991;43.566;27.820;2023-04-03T10:36:17;8.23;;;3.80;;
9904;SDS011;4991;43.566;27.820;2023-04-03T10:39:19;4.20;;;3.22;;
9904;SDS011;4991;43.566;27.820;2023-04-03T10:41:46;6.90;;;4.05;;
9904;SDS011;4991;43.566;27.820;2023-04-03T10:44:38;24.25;;;8.32;;
9904;SDS011;4991;43.566;27.820;2023-04-03T10:47:20;5.82;;;3.28;;
9904;SDS011;4991;43.566;27.820;2023-04-03T10:52:26;9.60;;;4.47;;
9904;SDS011;4991;43.566;27.820;2023-04-03T10:58:05;10.57;;;3.30;;
9904;SDS011;4991;43.566;27.820;2023-04-03T11:00:39;7.75;;;3.10;;
9904;SDS011;4991;43.566;27.820;2023-04-03T11:03:22;3.95;;;2.85;;
9904;SDS011;4991;43.566;27.820;2023-04-03T11:05:56;2.70;;;2.33;;
9904;SDS011;4991;43.566;27.820;2023-04-03T11:11:26;4.35;;;2.72;;
9904;SDS011;4991;43.566;27.820;2023-04-03T11:14:38;22.48;;;5.47;;
9904;SDS011;4991;43.566;27.820;2023-04-03T11:24:52;6.00;;;3.50;;
9904;SDS011;4991;43.566;27.820;2023-04-03T11:27:43;8.13;;;3.43;;
9904;SDS011;4991;43.566;27.820;2023-04-03T11:36:13;7.27;;;4.27;;
9904;SDS011;4991;43.566;27.820;2023-04-03T11:38:43;10.97;;;4.83;;
9904;SDS011;4991;43.566;27.820;2023-04-03T11:41:11;6.40;;;3.60;;
9904;SDS011;4991;43.566;27.820;2023-04-03T11:44:25;12.07;;;4.27;;
9904;SDS011;4991;43.566;27.820;2023-04-03T11:55:35;10.70;;;5.33;;
9904;SDS011;4991;43.566;27.820;2023-04-03T12:05:48;7.00;;;4.90;;
9904;SDS011;4991;43.566;27.820;2023-04-03T12:08:15;8.13;;;4.93;;
9904;SDS011;4991;43.566;27.820;2023-04-03T12:13:42;9.57;;;4.82;;
9904;SDS011;4991;43.566;27.820;2023-04-03T12:19:00;7.35;;;4.90;;
9904;SDS011;4991;43.566;27.820;2023-04-03T12:26:40;9.73;;;5.50;;
9904;SDS011;4991;43.566;27.820;2023-04-03T12:29:20;8.10;;;6.67;;
9904;SDS011;4991;43.566;27.820;2023-04-03T12:34:45;11.97;;;7.53;;
9904;SDS011;4991;43.566;27.820;2023-04-03T12:40:58;10.47;;;6.63;;
9904;SDS011;4991;43.566;27.820;2023-04-03T12:43:35;7.13;;;6.43;;
9904;SDS011;4991;43.566;27.820;2023-04-03T12:46:14;10.00;;;5.23;;
9904;SDS011;4991;43.566;27.820;2023-04-03T12:48:47;9.73;;;5.63;;
9904;SDS011;4991;43.566;27.820;2023-04-03T12:51:15;7.27;;;5.63;;
9904;SDS011;4991;43.566;27.820;2023-04-03T12:53:45;15.27;;;6.63;;
9904;SDS011;4991;43.566;27.820;2023-04-03T12:56:25;7.77;;;6.10;;
9904;SDS011;4991;43.566;27.820;2023-04-03T12:58:52;6.73;;;5.87;;
9904;SDS011;4991;43.566;27.820;2023-04-03T13:01:26;8.10;;;5.33;;
9904;SDS011;4991;43.566;27.820;2023-04-03T13:03:53;6.57;;;5.87;;
9904;SDS011;4991;43.566;27.820;2023-04-03T13:06:23;7.10;;;5.87;;
9904;SDS011;4991;43.566;27.820;2023-04-03T13:08:52;7.67;;;5.30;;
9904;SDS011;4991;43.566;27.820;2023-04-03T13:11:23;8.27;;;5.53;;
9904;SDS011;4991;43.566;27.820;2023-04-03T13:14:01;6.27;;;4.90;;
9904;SDS011;4991;43.566;27.820;2023-04-03T13:16:30;7.47;;;5.40;;
9904;SDS011;4991;43.566;27.820;2023-04-03T13:18:57;6.20;;;5.20;;
9904;SDS011;4991;43.566;27.820;2023-04-03T13:21:32;10.67;;;6.97;;
9904;SDS011;4991;43.566;27.820;2023-04-03T13:24:00;10.57;;;7.50;;
9904;SDS011;4991;43.566;27.820;2023-04-03T13:26:29;10.77;;;8.03;;
9904;SDS011;4991;43.566;27.820;2023-04-03T13:29:02;7.97;;;6.03;;
9904;SDS011;4991;43.566;27.820;2023-04-03T13:31:39;16.87;;;6.57;;
9904;SDS011;4991;43.566;27.820;2023-04-03T13:34:09;9.27;;;6.03;;
9904;SDS011;4991;43.566;27.820;2023-04-03T13:36:38;9.97;;;6.93;;
9904;SDS011;4991;43.566;27.820;2023-04-03T13:41:39;16.50;;;7.53;;
9904;SDS011;4991;43.566;27.820;2023-04-03T13:46:47;9.27;;;6.67;;
9904;SDS011;4991;43.566;27.820;2023-04-03T13:54:56;11.67;;;6.33;;
9904;SDS011;4991;43.566;27.820;2023-04-03T13:57:25;14.67;;;8.67;;
9904;SDS011;4991;43.566;27.820;2023-04-03T13:59:51;16.60;;;7.50;;
9904;SDS011;4991;43.566;27.820;2023-04-03T14:02:31;11.00;;;6.37;;
9904;SDS011;4991;43.566;27.820;2023-04-03T14:04:59;10.20;;;7.43;;
9904;SDS011;4991;43.566;27.820;2023-04-03T14:07:27;12.80;;;6.53;;
9904;SDS011;4991;43.566;27.820;2023-04-03T14:09:54;8.07;;;7.23;;
9904;SDS011;4991;43.566;27.820;2023-04-03T14:12:33;19.50;;;8.17;;
9904;SDS011;4991;43.566;27.820;2023-04-03T14:15:04;11.37;;;6.93;;
9904;SDS011;4991;43.566;27.820;2023-04-03T14:17:36;29.60;;;9.70;;
9904;SDS011;4991;43.566;27.820;2023-04-03T14:20:02;7.63;;;6.60;;
9904;SDS011;4991;43.566;27.820;2023-04-03T14:22:29;9.23;;;6.27;;
9904;SDS011;4991;43.566;27.820;2023-04-03T14:24:57;11.20;;;6.17;;
9904;SDS011;4991;43.566;27.820;2023-04-03T14:27:24;12.23;;;7.20;;
9904;SDS011;4991;43.566;27.820;2023-04-03T14:29:52;9.63;;;7.20;;
9904;SDS011;4991;43.566;27.820;2023-04-03T14:32:20;11.53;;;6.83;;
9904;SDS011;4991;43.566;27.820;2023-04-03T14:34:47;15.97;;;7.57;;
9904;SDS011;4991;43.566;27.820;2023-04-03T14:37:15;12.47;;;8.13;;
9904;SDS011;4991;43.566;27.820;2023-04-03T14:39:43;12.77;;;7.70;;
9904;SDS011;4991;43.566;27.820;2023-04-03T14:42:14;10.87;;;7.80;;
9904;SDS011;4991;43.566;27.820;2023-04-03T14:44:42;11.53;;;7.90;;
9904;SDS011;4991;43.566;27.820;2023-04-03T14:47:15;19.77;;;9.10;;
9904;SDS011;4991;43.566;27.820;2023-04-03T14:49:43;10.97;;;7.93;;
9904;SDS011;4991;43.566;27.820;2023-04-03T14:52:16;10.80;;;7.63;;
9904;SDS011;4991;43.566;27.820;2023-04-03T14:54:45;13.37;;;7.97;;
9904;SDS011;4991;43.566;27.820;2023-04-03T14:57:11;10.47;;;7.00;;
9904;SDS011;4991;43.566;27.820;2023-04-03T14:59:40;14.17;;;9.33;;
9904;SDS011;4991;43.566;27.820;2023-04-03T15:02:20;12.20;;;7.23;;
9904;SDS011;4991;43.566;27.820;2023-04-03T15:04:54;17.13;;;6.67;;
9904;SDS011;4991;43.566;27.820;2023-04-03T15:07:20;13.90;;;6.33;;
9904;SDS011;4991;43.566;27.820;2023-04-03T15:09:47;19.23;;;9.00;;
9904;SDS011;4991;43.566;27.820;2023-04-03T15:12:13;16.37;;;7.40;;
9904;SDS011;4991;43.566;27.820;2023-04-03T15:14:38;15.03;;;6.67;;
9904;SDS011;4991;43.566;27.820;2023-04-03T15:17:04;10.20;;;7.00;;
9904;SDS011;4991;43.566;27.820;2023-04-03T15:19:36;8.93;;;7.57;;
9904;SDS011;4991;43.566;27.820;2023-04-03T15:22:03;9.90;;;8.67;;
9904;SDS011;4991;43.566;27.820;2023-04-03T15:24:29;11.47;;;7.40;;
9904;SDS011;4991;43.566;27.820;2023-04-03T15:26:54;9.37;;;6.43;;
9904;SDS011;4991;43.566;27.820;2023-04-03T15:29:20;29.07;;;8.60;;
9904;SDS011;4991;43.566;27.820;2023-04-03T15:31:45;13.50;;;7.70;;
9904;SDS011;4991;43.566;27.820;2023-04-03T15:34:11;15.27;;;8.87;;
9904;SDS011;4991;43.566;27.820;2023-04-03T15:36:37;12.77;;;8.50;;
9904;SDS011;4991;43.566;27.820;2023-04-03T15:39:02;18.83;;;10.03;;
9904;SDS011;4991;43.566;27.820;2023-04-03T15:41:28;16.83;;;9.30;;
9904;SDS011;4991;43.566;27.820;2023-04-03T15:43:54;14.90;;;8.90;;
9904;SDS011;4991;43.566;27.820;2023-04-03T15:46:21;12.10;;;8.80;;
9904;SDS011;4991;43.566;27.820;2023-04-03T15:48:46;32.23;;;11.00;;
9904;SDS011;4991;43.566;27.820;2023-04-03T15:51:12;23.40;;;10.13;;
9904;SDS011;4991;43.566;27.820;2023-04-03T15:53:38;11.90;;;8.77;;
9904;SDS011;4991;43.566;27.820;2023-04-03T15:56:04;15.17;;;8.47;;
9904;SDS011;4991;43.566;27.820;2023-04-03T15:58:29;13.73;;;9.00;;
9904;SDS011;4991;43.566;27.820;2023-04-03T16:00:56;12.67;;;9.27;;
9904;SDS011;4991;43.566;27.820;2023-04-03T16:03:23;11.37;;;8.67;;
9904;SDS011;4991;43.566;27.820;2023-04-03T16:05:49;11.20;;;9.00;;
9904;SDS011;4991;43.566;27.820;2023-04-03T16:08:15;13.87;;;9.63;;
9904;SDS011;4991;43.566;27.820;2023-04-03T16:10:43;13.03;;;9.33;;
9904;SDS011;4991;43.566;27.820;2023-04-03T16:13:10;10.10;;;9.00;;
9904;SDS011;4991;43.566;27.820;2023-04-03T16:15:36;12.40;;;9.90;;
9904;SDS011;4991;43.566;27.820;2023-04-03T16:18:02;12.10;;;9.97;;
9904;SDS011;4991;43.566;27.820;2023-04-03T16:20:29;15.23;;;11.20;;
9904;SDS011;4991;43.566;27.820;2023-04-03T16:22:56;11.77;;;10.07;;
9904;SDS011;4991;43.566;27.820;2023-04-03T16:25:25;13.63;;;10.63;;
9904;SDS011;4991;43.566;27.820;2023-04-03T16:27:51;16.30;;;12.57;;
9904;SDS011;4991;43.566;27.820;2023-04-03T16:30:17;17.07;;;11.80;;
9904;SDS011;4991;43.566;27.820;2023-04-03T16:32:42;13.60;;;10.70;;
9904;SDS011;4991;43.566;27.820;2023-04-03T16:35:09;15.77;;;11.87;;
9904;SDS011;4991;43.566;27.820;2023-04-03T16:37:36;13.83;;;10.23;;
9904;SDS011;4991;43.566;27.820;2023-04-03T16:40:03;13.23;;;10.47;;
9904;SDS011;4991;43.566;27.820;2023-04-03T16:42:30;18.77;;;10.57;;
9904;SDS011;4991;43.566;27.820;2023-04-03T16:44:56;20.10;;;15.13;;
9904;SDS011;4991;43.566;27.820;2023-04-03T16:47:21;20.53;;;14.40;;
9904;SDS011;4991;43.566;27.820;2023-04-03T16:49:47;19.30;;;13.67;;
9904;SDS011;4991;43.566;27.820;2023-04-03T16:52:13;21.13;;;14.63;;
9904;SDS011;4991;43.566;27.820;2023-04-03T16:54:39;16.63;;;13.23;;
9904;SDS011;4991;43.566;27.820;2023-04-03T16:57:05;15.97;;;11.67;;
9904;SDS011;4991;43.566;27.820;2023-04-03T16:59:30;14.17;;;10.50;;
9904;SDS011;4991;43.566;27.820;2023-04-03T17:01:56;16.07;;;9.93;;
9904;SDS011;4991;43.566;27.820;2023-04-03T17:04:22;12.63;;;9.20;;